createdAt,value
2023-05-15T00:02:07.422Z,15.32
2023-05-15T00:04:34.053Z,15.31
2023-05-15T00:07:00.621Z,15.32
2023-05-15T00:09:27.158Z,15.33
2023-05-15T00:11:53.895Z,15.33
2023-05-15T00:14:20.391Z,15.37
2023-05-15T00:16:46.908Z,15.39
2023-05-15T00:19:14.631Z,15.37
2023-05-15T00:21:41.222Z,15.40
2023-05-15T00:24:07.758Z,15.38
2023-05-15T00:26:34.368Z,15.35
2023-05-15T00:29:00.905Z,15.34
2023-05-15T00:31:27.477Z,15.32
2023-05-15T00:33:54.015Z,15.31
2023-05-15T00:36:22.049Z,15.30
2023-05-15T00:38:48.533Z,15.27
2023-05-15T00:41:16.068Z,15.30
2023-05-15T00:43:43.879Z,15.27
2023-05-15T00:46:12.723Z,15.27
2023-05-15T00:48:40.052Z,15.26
2023-05-15T00:51:06.598Z,15.24
2023-05-15T00:53:33.172Z,15.24
2023-05-15T00:56:00.979Z,15.21
2023-05-15T00:58:27.541Z,15.22
2023-05-15T01:00:54.095Z,15.21
2023-05-15T01:03:21.115Z,14.96
2023-05-15T01:05:47.914Z,15.11
2023-05-15T01:08:23.531Z,15.16
2023-05-15T01:10:52.252Z,15.06
2023-05-15T01:13:22.973Z,14.99
2023-05-15T01:15:50.414Z,15.14
2023-05-15T01:18:17.501Z,15.07
2023-05-15T01:21:00.158Z,15.09
2023-05-15T01:24:08.027Z,14.98
2023-05-15T01:27:03.497Z,15.09
2023-05-15T01:29:41.698Z,14.95
2023-05-15T01:32:32.419Z,15.14
2023-05-15T01:35:04.558Z,15.13
2023-05-15T01:37:33.474Z,15.14
2023-05-15T01:40:09.216Z,15.00
2023-05-15T01:42:40.474Z,15.12
2023-05-15T01:45:11.268Z,14.98
2023-05-15T01:47:44.986Z,14.98
2023-05-15T01:50:13.445Z,15.10
2023-05-15T01:52:43.881Z,14.79
2023-05-15T01:55:11.842Z,15.00
2023-05-15T01:57:39.325Z,15.01
2023-05-15T02:00:07.887Z,15.11
2023-05-15T02:02:42.357Z,15.09
2023-05-15T02:05:09.752Z,15.10
2023-05-15T02:07:37.240Z,15.09
2023-05-15T02:10:04.641Z,15.06
2023-05-15T02:12:32.076Z,15.07
2023-05-15T02:14:59.808Z,15.06
2023-05-15T02:17:28.624Z,15.06
2023-05-15T02:19:55.727Z,15.05
2023-05-15T02:22:22.267Z,15.05
2023-05-15T02:24:48.780Z,15.06
2023-05-15T02:27:28.246Z,15.05
2023-05-15T02:30:03.493Z,15.06
2023-05-15T02:32:34.980Z,15.04
2023-05-15T02:35:40.128Z,15.03
2023-05-15T02:38:12.031Z,15.04
2023-05-15T02:40:40.593Z,15.06
2023-05-15T02:43:08.897Z,15.04
2023-05-15T02:45:36.324Z,15.03
2023-05-15T02:48:05.274Z,15.02
2023-05-15T02:50:32.113Z,15.00
2023-05-15T02:53:06.027Z,15.01
2023-05-15T02:55:33.829Z,15.02
2023-05-15T02:58:00.534Z,15.01
2023-05-15T03:00:27.097Z,15.01
2023-05-15T03:02:53.819Z,15.00
2023-05-15T03:05:20.900Z,15.00
2023-05-15T03:07:47.420Z,14.99
2023-05-15T03:10:14.027Z,15.00
2023-05-15T03:12:40.588Z,14.99
2023-05-15T03:15:07.438Z,14.98
2023-05-15T03:17:33.977Z,14.99
2023-05-15T03:20:00.576Z,15.03
2023-05-15T03:22:27.070Z,15.06
2023-05-15T03:24:53.552Z,15.06
2023-05-15T03:27:20.026Z,15.10
2023-05-15T03:29:49.058Z,15.11
2023-05-15T03:32:15.648Z,15.11
2023-05-15T03:34:42.196Z,15.08
2023-05-15T03:37:08.942Z,15.11
2023-05-15T03:39:35.420Z,15.11
2023-05-15T03:42:02.741Z,15.14
2023-05-15T03:44:29.661Z,15.12
2023-05-15T03:46:56.404Z,15.12
2023-05-15T03:49:22.975Z,15.11
2023-05-15T03:51:49.559Z,15.08
2023-05-15T03:54:16.083Z,15.06
2023-05-15T03:56:42.617Z,15.04
2023-05-15T03:59:09.118Z,15.04
2023-05-15T04:01:44.038Z,15.02
2023-05-15T04:04:17.744Z,15.02
2023-05-15T04:06:44.235Z,15.00
2023-05-15T04:09:10.789Z,15.01
2023-05-15T04:11:37.294Z,15.00
2023-05-15T04:14:03.796Z,15.01
2023-05-15T04:16:30.558Z,15.00
2023-05-15T04:18:57.130Z,15.00
2023-05-15T04:21:23.717Z,14.97
2023-05-15T04:23:50.394Z,14.97
2023-05-15T04:26:17.054Z,14.98
2023-05-15T04:28:52.472Z,14.97
2023-05-15T04:31:29.419Z,14.96
2023-05-15T04:33:55.976Z,14.96
2023-05-15T04:36:22.923Z,14.95
2023-05-15T04:38:49.459Z,14.95
2023-05-15T04:41:16.046Z,14.92
2023-05-15T04:43:42.686Z,14.92
2023-05-15T04:46:09.209Z,14.90
2023-05-15T04:48:35.827Z,14.89
2023-05-15T04:51:02.372Z,14.90
2023-05-15T04:53:28.855Z,14.88
2023-05-15T04:55:55.707Z,14.90
2023-05-15T04:58:22.191Z,14.90
2023-05-15T05:00:48.687Z,14.90
2023-05-15T05:03:15.366Z,14.90
2023-05-15T05:05:41.916Z,14.89
2023-05-15T05:08:08.425Z,14.89
2023-05-15T05:10:34.895Z,14.90
2023-05-15T05:13:01.419Z,14.90
2023-05-15T05:15:28.151Z,14.90
2023-05-15T05:17:54.787Z,14.92
2023-05-15T05:20:21.262Z,14.92
2023-05-15T05:22:47.761Z,14.93
2023-05-15T05:25:14.347Z,14.91
2023-05-15T05:27:40.928Z,14.90
2023-05-15T05:30:08.769Z,14.91
2023-05-15T05:32:35.414Z,14.87
2023-05-15T05:35:02.063Z,14.88
2023-05-15T05:37:28.598Z,14.90
2023-05-15T05:39:55.192Z,14.89
2023-05-15T05:42:21.677Z,14.88
2023-05-15T05:44:48.194Z,14.88
2023-05-15T05:47:14.794Z,14.81
2023-05-15T05:49:41.386Z,14.78
2023-05-15T05:52:08.389Z,14.78
2023-05-15T05:54:35.043Z,14.80
2023-05-15T05:57:01.580Z,14.82
2023-05-15T05:59:29.209Z,14.84
2023-05-15T06:01:56.273Z,14.84
2023-05-15T06:04:22.853Z,14.86
2023-05-15T06:06:50.165Z,14.86
2023-05-15T06:09:17.452Z,14.83
2023-05-15T06:11:43.950Z,14.86
2023-05-15T06:14:10.446Z,14.87
2023-05-15T06:16:37.022Z,14.90
2023-05-15T06:19:03.598Z,14.92
2023-05-15T06:21:30.188Z,14.91
2023-05-15T06:23:56.703Z,14.93
2023-05-15T06:26:23.383Z,14.95
2023-05-15T06:28:49.913Z,14.98
2023-05-15T06:31:17.394Z,15.00
2023-05-15T06:33:43.988Z,15.02
2023-05-15T06:36:10.605Z,15.03
2023-05-15T06:38:37.082Z,15.05
2023-05-15T06:41:03.705Z,15.07
2023-05-15T06:43:30.298Z,15.09
2023-05-15T06:45:56.786Z,15.14
2023-05-15T06:48:23.344Z,15.19
2023-05-15T06:50:49.879Z,15.22
2023-05-15T06:53:17.784Z,15.26
2023-05-15T06:55:44.369Z,15.31
2023-05-15T06:58:11.183Z,15.34
2023-05-15T07:00:37.701Z,15.37
2023-05-15T07:03:04.504Z,15.39
2023-05-15T07:05:31.125Z,15.40
2023-05-15T07:07:57.717Z,15.42
2023-05-15T07:10:24.415Z,15.41
2023-05-15T07:12:51.232Z,15.42
2023-05-15T07:15:17.943Z,15.45
2023-05-15T07:17:44.603Z,15.41
2023-05-15T07:20:11.482Z,15.38
2023-05-15T07:22:52.045Z,15.42
2023-05-15T07:25:21.984Z,15.45
2023-05-15T07:27:48.505Z,15.42
2023-05-15T07:30:15.274Z,15.39
2023-05-15T07:32:41.832Z,15.37
2023-05-15T07:35:08.826Z,15.34
2023-05-15T07:37:35.319Z,15.33
2023-05-15T07:40:01.947Z,15.34
2023-05-15T07:42:28.448Z,15.31
2023-05-15T07:44:55.007Z,15.31
2023-05-15T07:47:21.703Z,15.30
2023-05-15T07:49:48.260Z,15.29
2023-05-15T07:52:14.792Z,15.25
2023-05-15T07:54:42.219Z,15.25
2023-05-15T07:57:09.528Z,15.22
2023-05-15T07:59:36.702Z,15.21
2023-05-15T08:02:03.419Z,15.21
2023-05-15T08:04:29.981Z,15.18
2023-05-15T08:06:56.793Z,15.17
2023-05-15T08:09:23.300Z,15.18
2023-05-15T08:11:49.803Z,15.19
2023-05-15T08:14:16.338Z,15.19
2023-05-15T08:16:42.860Z,15.20
2023-05-15T08:19:10.391Z,15.20
2023-05-15T08:21:37.045Z,15.17
2023-05-15T08:24:03.888Z,15.18
2023-05-15T08:26:30.494Z,15.18
2023-05-15T08:28:57.030Z,15.19
2023-05-15T08:31:23.593Z,15.21
2023-05-15T08:33:50.099Z,15.21
2023-05-15T08:36:18.304Z,15.19
2023-05-15T08:38:44.908Z,15.20
2023-05-15T08:41:38.803Z,15.24
2023-05-15T08:44:09.652Z,15.30
2023-05-15T08:46:36.601Z,15.32
2023-05-15T08:49:14.875Z,15.32
2023-05-15T08:51:41.704Z,15.37
2023-05-15T08:54:08.728Z,15.35
2023-05-15T08:56:36.230Z,15.40
2023-05-15T08:59:03.678Z,15.39
2023-05-15T09:01:30.653Z,15.39
2023-05-15T09:03:57.260Z,15.38
2023-05-15T09:06:25.089Z,15.39
2023-05-15T09:08:55.874Z,15.38
2023-05-15T09:11:26.912Z,15.37
2023-05-15T09:13:53.598Z,15.38
2023-05-15T09:16:21.617Z,15.37
2023-05-15T09:18:50.160Z,15.37
2023-05-15T09:21:26.902Z,15.36
2023-05-15T09:24:15.772Z,15.37
2023-05-15T09:26:42.988Z,15.35
2023-05-15T09:29:09.726Z,15.32
2023-05-15T09:31:36.356Z,15.27
2023-05-15T09:34:04.649Z,15.26
2023-05-15T09:36:32.553Z,15.25
2023-05-15T09:39:01.065Z,15.24
2023-05-15T09:41:28.392Z,15.25
2023-05-15T09:43:56.703Z,15.24
2023-05-15T09:46:24.307Z,15.22
2023-05-15T09:48:54.219Z,15.21
2023-05-15T09:51:20.912Z,15.22
2023-05-15T09:53:52.791Z,15.23
2023-05-15T09:56:19.424Z,15.21
2023-05-15T09:59:16.286Z,15.22
2023-05-15T10:01:48.289Z,15.22
2023-05-15T10:04:15.314Z,15.24
2023-05-15T10:06:47.312Z,15.25
2023-05-15T10:09:15.205Z,15.27
2023-05-15T10:11:44.524Z,15.30
2023-05-15T10:14:14.197Z,15.32
2023-05-15T10:16:41.708Z,15.34
2023-05-15T10:19:09.625Z,15.36
2023-05-15T10:21:41.444Z,15.38
2023-05-15T10:24:08.757Z,15.39
2023-05-15T10:26:40.272Z,15.38
2023-05-15T10:29:12.819Z,15.38
2023-05-15T10:31:40.966Z,15.42
2023-05-15T10:34:09.390Z,15.43
2023-05-15T10:36:37.992Z,15.43
2023-05-15T10:39:06.416Z,15.45
2023-05-15T10:41:36.193Z,15.47
2023-05-15T10:44:03.022Z,15.48
2023-05-15T10:46:33.356Z,15.50
2023-05-15T10:49:01.673Z,15.52
2023-05-15T10:51:29.943Z,15.53
2023-05-15T10:53:57.240Z,15.55
2023-05-15T10:56:30.703Z,15.55
2023-05-15T10:58:57.500Z,15.56
2023-05-15T11:01:28.732Z,15.55
2023-05-15T11:04:18.728Z,15.55
2023-05-15T11:06:47.807Z,15.52
2023-05-15T11:09:29.244Z,15.53
2023-05-15T11:12:00.292Z,15.52
2023-05-15T11:14:36.384Z,15.53
2023-05-15T11:17:15.437Z,15.52
2023-05-15T11:19:51.675Z,15.51
2023-05-15T11:22:30.190Z,15.51
2023-05-15T11:25:12.589Z,15.55
2023-05-15T11:27:40.056Z,15.59
2023-05-15T11:30:11.456Z,15.64
2023-05-15T11:32:46.813Z,15.68
2023-05-15T11:35:22.736Z,15.71
2023-05-15T11:37:54.749Z,15.72
2023-05-15T11:40:23.366Z,15.75
2023-05-15T11:43:04.890Z,15.77
2023-05-15T11:45:34.146Z,15.79
2023-05-15T11:48:02.864Z,15.80
2023-05-15T11:50:32.427Z,15.82
2023-05-15T11:53:02.071Z,15.84
2023-05-15T11:55:30.929Z,15.85
2023-05-15T11:57:57.616Z,15.85
2023-05-15T12:00:24.425Z,15.83
2023-05-15T12:02:51.138Z,15.84
2023-05-15T12:05:17.746Z,15.84
2023-05-15T12:07:44.883Z,15.84
2023-05-15T12:10:13.109Z,15.83
2023-05-15T12:12:41.466Z,15.83
2023-05-15T12:15:15.505Z,15.85
2023-05-15T12:17:43.723Z,15.84
2023-05-15T12:20:18.837Z,15.84
2023-05-15T12:22:45.762Z,15.84
2023-05-15T12:25:14.819Z,15.85
2023-05-15T12:27:41.726Z,15.84
2023-05-15T12:30:09.786Z,15.85
2023-05-15T12:32:37.835Z,15.85
2023-05-15T12:35:05.184Z,15.85
2023-05-15T12:37:34.732Z,15.86
2023-05-15T12:40:04.842Z,15.87
2023-05-15T12:42:31.377Z,15.87
2023-05-15T12:44:57.899Z,15.86
2023-05-15T12:47:25.979Z,15.87
2023-05-15T12:49:57.587Z,15.88
2023-05-15T12:52:24.192Z,15.88
2023-05-15T12:54:50.846Z,15.90
2023-05-15T12:57:17.395Z,15.90
2023-05-15T12:59:43.971Z,15.92
2023-05-15T13:02:13.984Z,15.94
2023-05-15T13:04:40.647Z,15.95
2023-05-15T13:07:07.463Z,15.96
2023-05-15T13:09:35.393Z,15.96
2023-05-15T13:12:03.718Z,15.97
2023-05-15T13:14:33.551Z,15.98
2023-05-15T13:17:02.989Z,15.98
2023-05-15T13:19:29.828Z,15.97
2023-05-15T13:21:57.240Z,15.95
2023-05-15T13:24:23.798Z,15.95
2023-05-15T13:26:50.416Z,15.92
2023-05-15T13:29:16.946Z,15.90
2023-05-15T13:31:43.479Z,15.90
2023-05-15T13:34:10.022Z,15.89
2023-05-15T13:36:36.636Z,15.88
2023-05-15T13:39:03.870Z,15.87
2023-05-15T13:41:30.477Z,15.88
2023-05-15T13:43:57.027Z,15.86
2023-05-15T13:46:23.565Z,15.85
2023-05-15T13:48:50.101Z,15.86
2023-05-15T13:51:16.589Z,15.85
2023-05-15T13:53:43.113Z,15.85
2023-05-15T13:56:09.651Z,15.86
2023-05-15T13:58:36.396Z,15.87
2023-05-15T14:01:06.900Z,15.88
2023-05-15T14:03:34.463Z,15.87
2023-05-15T14:06:01.070Z,15.90
2023-05-15T14:08:27.588Z,15.89
2023-05-15T14:10:54.070Z,15.92
2023-05-15T14:13:20.597Z,15.95
2023-05-15T14:15:47.221Z,15.95
2023-05-15T14:18:13.796Z,15.96
2023-05-15T14:20:40.318Z,15.97
2023-05-15T14:23:06.886Z,15.97
2023-05-15T14:25:33.551Z,16.00
2023-05-15T14:28:00.021Z,16.03
2023-05-15T14:30:26.711Z,16.05
2023-05-15T14:32:53.521Z,16.09
2023-05-15T14:35:20.168Z,16.12
2023-05-15T14:37:46.734Z,16.14
2023-05-15T14:40:13.488Z,16.15
2023-05-15T14:42:40.546Z,16.15
2023-05-15T14:45:08.065Z,16.15
2023-05-15T14:47:34.635Z,16.15
2023-05-15T14:50:01.116Z,16.14
2023-05-15T14:52:27.630Z,16.15
2023-05-15T14:55:07.974Z,16.18
2023-05-15T14:57:36.291Z,16.20
2023-05-15T15:00:04.479Z,16.21
2023-05-15T15:02:31.130Z,16.22
2023-05-15T15:04:57.989Z,16.22
2023-05-15T15:07:29.423Z,16.19
2023-05-15T15:09:55.951Z,16.20
2023-05-15T15:12:22.560Z,16.17
2023-05-15T15:14:49.090Z,16.15
2023-05-15T15:17:15.591Z,16.14
2023-05-15T15:19:42.099Z,16.12
2023-05-15T15:22:08.606Z,16.11
2023-05-15T15:24:35.101Z,16.08
2023-05-15T15:27:01.604Z,16.12
2023-05-15T15:29:28.093Z,16.12
2023-05-15T15:31:54.670Z,16.11
2023-05-15T15:34:21.993Z,16.11
2023-05-15T15:36:48.488Z,16.10
2023-05-15T15:39:15.050Z,16.12
2023-05-15T15:41:41.536Z,16.12
2023-05-15T15:44:08.037Z,16.13
2023-05-15T15:46:34.516Z,16.15
2023-05-15T15:49:01.111Z,16.16
2023-05-15T15:51:27.623Z,16.18
2023-05-15T15:53:54.152Z,16.15
2023-05-15T15:56:21.337Z,16.17
2023-05-15T15:58:47.932Z,16.18
2023-05-15T16:01:14.708Z,16.14
2023-05-15T16:03:41.330Z,16.15
2023-05-15T16:06:07.929Z,16.15
2023-05-15T16:08:34.450Z,16.15
2023-05-15T16:11:01.023Z,16.14
2023-05-15T16:13:27.547Z,16.15
2023-05-15T16:15:54.037Z,16.15
2023-05-15T16:18:21.132Z,16.14
2023-05-15T16:20:47.986Z,16.13
2023-05-15T16:23:17.810Z,16.12
2023-05-15T16:25:44.738Z,16.13
2023-05-15T16:28:11.954Z,16.12
2023-05-15T16:30:47.920Z,16.10
2023-05-15T16:33:17.101Z,16.09
2023-05-15T16:35:44.329Z,16.09
2023-05-15T16:38:11.115Z,16.09
2023-05-15T16:40:37.627Z,16.13
2023-05-15T16:43:04.335Z,16.16
2023-05-15T16:45:30.909Z,16.18
2023-05-15T16:47:57.667Z,16.19
2023-05-15T16:50:24.763Z,16.19
2023-05-15T16:52:51.477Z,16.18
2023-05-15T16:55:18.899Z,16.19
2023-05-15T16:57:46.412Z,16.17
2023-05-15T17:00:14.355Z,16.15
2023-05-15T17:02:42.095Z,16.14
2023-05-15T17:05:10.064Z,16.11
2023-05-15T17:07:40.954Z,16.13
2023-05-15T17:10:08.140Z,16.12
2023-05-15T17:12:35.131Z,16.08
2023-05-15T17:15:01.967Z,16.06
2023-05-15T17:17:28.553Z,16.03
2023-05-15T17:19:55.892Z,16.00
2023-05-15T17:22:22.685Z,15.96
2023-05-15T17:24:52.060Z,15.95
2023-05-15T17:27:19.443Z,15.93
2023-05-15T17:29:46.096Z,15.92
2023-05-15T17:32:12.836Z,15.90
2023-05-15T17:34:39.461Z,15.87
2023-05-15T17:37:06.103Z,15.87
2023-05-15T17:39:32.670Z,15.86
2023-05-15T17:41:59.206Z,15.84
2023-05-15T17:44:29.812Z,15.85
2023-05-15T17:46:57.365Z,15.84
2023-05-15T17:49:24.133Z,15.84
2023-05-15T17:51:51.016Z,15.83
2023-05-15T17:54:17.885Z,15.83
2023-05-15T17:56:44.472Z,15.83
2023-05-15T17:59:11.452Z,15.81
2023-05-15T18:01:38.037Z,15.81
2023-05-15T18:04:04.893Z,15.81
2023-05-15T18:06:34.186Z,15.78
2023-05-15T18:09:00.953Z,15.79
2023-05-15T18:11:27.651Z,15.79
2023-05-15T18:13:54.153Z,15.78
2023-05-15T18:16:20.990Z,15.79
2023-05-15T18:18:49.354Z,15.77
2023-05-15T18:21:16.034Z,15.75
2023-05-15T18:23:42.585Z,15.72
2023-05-15T18:26:09.134Z,15.73
2023-05-15T18:28:35.672Z,15.75
2023-05-15T18:31:02.185Z,15.73
2023-05-15T18:33:28.758Z,15.72
2023-05-15T18:35:55.259Z,15.71
2023-05-15T18:38:21.846Z,15.70
2023-05-15T18:40:48.837Z,15.69
2023-05-15T18:43:15.422Z,15.69
2023-05-15T18:45:41.966Z,15.69
2023-05-15T18:48:08.550Z,15.71
2023-05-15T18:50:35.968Z,15.70
2023-05-15T18:53:03.054Z,15.70
2023-05-15T18:55:30.088Z,15.71
2023-05-15T18:57:56.708Z,15.71
2023-05-15T19:00:37.220Z,15.71
2023-05-15T19:03:05.634Z,15.72
2023-05-15T19:05:33.920Z,15.70
2023-05-15T19:08:00.811Z,15.69
2023-05-15T19:10:29.353Z,15.68
2023-05-15T19:12:57.072Z,15.66
2023-05-15T19:15:23.762Z,15.65
2023-05-15T19:17:50.724Z,15.63
2023-05-15T19:20:17.415Z,15.64
2023-05-15T19:22:43.970Z,15.64
2023-05-15T19:25:10.817Z,15.63
2023-05-15T19:27:37.630Z,15.63
2023-05-15T19:30:06.895Z,15.64
2023-05-15T19:32:33.734Z,15.64
2023-05-15T19:35:00.393Z,15.65
2023-05-15T19:37:26.870Z,15.67
2023-05-15T19:39:53.466Z,15.69
2023-05-15T19:42:19.956Z,15.72
2023-05-15T19:44:46.462Z,15.72
2023-05-15T19:47:13.018Z,15.73
2023-05-15T19:49:39.515Z,15.73
2023-05-15T19:52:06.128Z,15.74
2023-05-15T19:54:32.613Z,15.75
2023-05-15T19:57:02.663Z,15.74
2023-05-15T19:59:29.756Z,15.71
2023-05-15T20:01:56.553Z,15.71
2023-05-15T20:04:23.285Z,15.70
2023-05-15T20:06:49.798Z,15.69
2023-05-15T20:09:16.274Z,15.66
2023-05-15T20:11:42.911Z,15.67
2023-05-15T20:14:09.400Z,15.68
2023-05-15T20:16:36.390Z,15.68
2023-05-15T20:19:04.102Z,15.67
2023-05-15T20:21:31.894Z,15.66
2023-05-15T20:23:58.440Z,15.65
2023-05-15T20:26:24.982Z,15.67
2023-05-15T20:28:51.475Z,15.68
2023-05-15T20:31:18.289Z,15.64
2023-05-15T20:33:44.987Z,15.63
2023-05-15T20:36:11.508Z,15.63
2023-05-15T20:38:38.586Z,15.62
2023-05-15T20:41:05.175Z,15.62
2023-05-15T20:43:31.832Z,15.60
2023-05-15T20:45:58.388Z,15.58
2023-05-15T20:48:24.974Z,15.57
2023-05-15T20:50:53.117Z,15.59
2023-05-15T20:53:19.717Z,15.57
2023-05-15T20:55:46.263Z,15.58
2023-05-15T20:58:12.826Z,15.57
2023-05-15T21:00:39.361Z,15.55
2023-05-15T21:03:06.192Z,15.56
2023-05-15T21:05:32.785Z,15.57
2023-05-15T21:07:59.373Z,15.54
2023-05-15T21:10:26.275Z,15.54
2023-05-15T21:12:52.975Z,15.52
2023-05-15T21:15:19.498Z,15.53
2023-05-15T21:17:46.040Z,15.52
2023-05-15T21:20:12.603Z,15.51
2023-05-15T21:22:39.359Z,15.50
2023-05-15T21:25:06.376Z,15.49
2023-05-15T21:27:33.043Z,15.50
2023-05-15T21:29:59.582Z,15.49
2023-05-15T21:32:26.352Z,15.49
2023-05-15T21:34:52.859Z,15.47
2023-05-15T21:37:19.641Z,15.47
2023-05-15T21:39:46.214Z,15.47
2023-05-15T21:42:12.747Z,15.46
2023-05-15T21:44:39.227Z,15.45
2023-05-15T21:47:05.984Z,15.46
2023-05-15T21:49:32.449Z,15.45
2023-05-15T21:51:59.161Z,15.47
2023-05-15T21:54:25.649Z,15.45
2023-05-15T21:56:52.221Z,15.46
2023-05-15T21:59:18.817Z,15.45
2023-05-15T22:01:45.424Z,15.43
2023-05-15T22:04:12.094Z,15.43
2023-05-15T22:06:38.660Z,15.43
2023-05-15T22:09:05.272Z,15.42
2023-05-15T22:11:31.794Z,15.43
2023-05-15T22:13:59.703Z,15.42
2023-05-15T22:16:26.229Z,15.45
2023-05-15T22:18:54.001Z,15.46
2023-05-15T22:21:20.891Z,15.45
2023-05-15T22:23:48.069Z,15.48
2023-05-15T22:26:14.648Z,15.50
2023-05-15T22:28:42.035Z,15.51
2023-05-15T22:31:08.634Z,15.52
2023-05-15T22:33:35.352Z,15.53
2023-05-15T22:36:01.856Z,15.55
2023-05-15T22:38:28.389Z,15.55
2023-05-15T22:40:54.937Z,15.57
2023-05-15T22:43:22.511Z,15.56
2023-05-15T22:45:49.267Z,15.56
2023-05-15T22:48:15.839Z,15.55
2023-05-15T22:50:43.697Z,15.56
2023-05-15T22:53:10.561Z,15.55
2023-05-15T22:55:37.323Z,15.54
2023-05-15T22:58:04.126Z,15.52
2023-05-15T23:00:31.154Z,15.49
2023-05-15T23:02:58.005Z,15.49
2023-05-15T23:05:25.253Z,15.49
2023-05-15T23:07:52.663Z,15.48
2023-05-15T23:10:19.302Z,15.46
2023-05-15T23:12:46.250Z,15.43
2023-05-15T23:15:13.744Z,15.46
2023-05-15T23:17:40.488Z,15.43
2023-05-15T23:20:10.434Z,15.42
2023-05-15T23:22:37.193Z,15.41
2023-05-15T23:25:03.994Z,15.40
2023-05-15T23:27:30.495Z,15.39
2023-05-15T23:29:56.982Z,15.40
2023-05-15T23:32:23.507Z,15.40
2023-05-15T23:34:50.792Z,15.40
2023-05-15T23:37:17.310Z,15.39
2023-05-15T23:39:43.787Z,15.40
2023-05-15T23:42:12.246Z,15.39
2023-05-15T23:44:38.832Z,15.38
2023-05-15T23:47:05.583Z,15.39
2023-05-15T23:49:33.478Z,15.40
2023-05-15T23:52:00.067Z,15.39
2023-05-15T23:54:26.686Z,15.38
2023-05-15T23:56:53.366Z,15.37
2023-05-15T23:59:19.880Z,15.37
